Time;durP1;ratioP1;P1;durP2;ratioP2;P2;SDS_P1;SDS_P2;PMS_P1;PMS_P2;Temp;Humidity;BMP_temperature;BMP_pressure;BME280_temperature;BME280_humidity;BME280_pressure;Samples;Min_cycle;Max_cycle;Signal;HPM_P1;HPM_P2
2022/03/29 00:00:58;;;;;;;1.15;1.10;;;;;;;;;;6242219;23;20085;-77
2022/03/29 00:03:23;;;;;;;1.10;1.10;;;;;;;;;;6243001;23;20497;-75
2022/03/29 00:05:49;;;;;;;1.13;1.13;;;;;;;;;;6243077;23;20012;-76
2022/03/29 00:08:15;;;;;;;1.48;1.40;;;;;;;;;;6241163;23;20012;-77
2022/03/29 00:10:41;;;;;;;1.02;1.02;;;;;;;;;;6242751;23;20069;-77
2022/03/29 00:13:07;;;;;;;1.13;1.10;;;;;;;;;;6242388;23;20008;-76
2022/03/29 00:15:33;;;;;;;1.20;1.15;;;;;;;;;;6215709;23;20075;-76
2022/03/29 00:17:59;;;;;;;3.72;1.45;;;;;;;;;;6242368;23;20444;-76
2022/03/29 00:20:25;;;;;;;1.17;1.13;;;;;;;;;;6215933;23;20088;-74
2022/03/29 00:22:51;;;;;;;5.05;1.55;;;;;;;;;;6243074;23;20004;-76
2022/03/29 00:25:17;;;;;;;2.05;1.50;;;;;;;;;;6242866;23;20333;-75
2022/03/29 00:27:42;;;;;;;2.15;1.70;;;;;;;;;;6216455;23;20011;-76
2022/03/29 00:30:11;;;;;;;1.67;1.33;;;;;;;;;;6216296;23;20019;-76
2022/03/29 00:32:36;;;;;;;1.20;1.15;;;;;;;;;;6240747;23;20478;-76
2022/03/29 00:35:03;;;;;;;1.00;1.00;;;;;;;;;;6242532;23;20043;-77
2022/03/29 00:37:28;;;;;;;0.90;0.90;;;;;;;;;;6240833;23;20146;-76
2022/03/29 00:39:54;;;;;;;1.27;1.27;;;;;;;;;;6215636;23;20035;-77
2022/03/29 00:42:20;;;;;;;1.27;1.27;;;;;;;;;;6215114;23;20019;-76
2022/03/29 00:44:46;;;;;;;12.93;1.60;;;;;;;;;;6215768;23;20510;-75
2022/03/29 00:47:12;;;;;;;1.67;1.58;;;;;;;;;;6190176;23;20020;-77
2022/03/29 00:49:38;;;;;;;1.55;1.45;;;;;;;;;;6215813;23;20106;-75
2022/03/29 00:52:04;;;;;;;1.10;1.10;;;;;;;;;;6240680;23;20446;-76
2022/03/29 00:54:32;;;;;;;1.83;1.60;;;;;;;;;;6243073;23;20400;-75
2022/03/29 00:56:58;;;;;;;1.25;1.25;;;;;;;;;;6240473;23;20436;-77
2022/03/29 00:59:24;;;;;;;1.52;1.45;;;;;;;;;;6272235;22;20019;-73
2022/03/29 01:01:51;;;;;;;1.67;1.35;;;;;;;;;;6274191;22;20065;-74
2022/03/29 01:04:17;;;;;;;2.03;1.45;;;;;;;;;;6247360;22;20015;-74
2022/03/29 01:06:44;;;;;;;2.15;1.50;;;;;;;;;;6274936;22;20012;-74
2022/03/29 01:09:10;;;;;;;1.30;1.27;;;;;;;;;;6272824;22;20011;-74
2022/03/29 01:11:37;;;;;;;1.17;1.17;;;;;;;;;;6274549;22;20016;-73
2022/03/29 01:14:03;;;;;;;2.42;1.50;;;;;;;;;;6275083;22;20508;-74
2022/03/29 01:19:14;;;;;;;1.23;1.13;;;;;;;;;;6247114;22;20054;-74
2022/03/29 01:21:40;;;;;;;2.40;1.55;;;;;;;;;;6274373;22;20474;-73
2022/03/29 01:24:06;;;;;;;1.20;1.15;;;;;;;;;;6221801;22;20038;-74
2022/03/29 01:26:33;;;;;;;1.77;1.60;;;;;;;;;;6272707;22;20452;-74
2022/03/29 01:28:59;;;;;;;1.77;1.67;;;;;;;;;;6272700;22;20086;-75
2022/03/29 01:31:25;;;;;;;1.60;1.50;;;;;;;;;;6247368;22;20043;-75
2022/03/29 01:33:51;;;;;;;1.63;1.52;;;;;;;;;;6247681;22;20041;-74
2022/03/29 01:36:16;;;;;;;1.23;1.23;;;;;;;;;;6273751;22;20106;-75
2022/03/29 01:38:42;;;;;;;1.63;1.20;;;;;;;;;;6274917;22;20038;-75
2022/03/29 01:41:09;;;;;;;1.63;1.52;;;;;;;;;;6247178;22;20465;-76
2022/03/29 01:43:35;;;;;;;2.75;1.30;;;;;;;;;;6247648;22;20478;-75
2022/03/29 01:46:01;;;;;;;1.92;1.63;;;;;;;;;;6274725;22;20012;-76
2022/03/29 01:48:27;;;;;;;1.52;1.48;;;;;;;;;;6275033;22;20094;-76
2022/03/29 01:50:52;;;;;;;1.50;1.50;;;;;;;;;;6276060;22;20011;-74
2022/03/29 01:53:26;;;;;;;1.60;1.50;;;;;;;;;;6273987;22;20042;-76
2022/03/29 01:55:56;;;;;;;3.70;1.50;;;;;;;;;;6275762;22;20058;-74
2022/03/29 01:58:25;;;;;;;1.38;1.30;;;;;;;;;;6275592;22;20381;-75
2022/03/29 02:00:51;;;;;;;1.63;1.27;;;;;;;;;;6274589;22;20359;-76
2022/03/29 02:03:17;;;;;;;1.27;1.27;;;;;;;;;;6274569;22;20035;-73
2022/03/29 02:05:43;;;;;;;1.58;1.55;;;;;;;;;;6272986;22;20093;-74
2022/03/29 02:08:09;;;;;;;3.95;1.13;;;;;;;;;;6274069;22;20035;-75
2022/03/29 02:10:35;;;;;;;1.30;1.30;;;;;;;;;;6272973;22;20023;-75
2022/03/29 02:13:05;;;;;;;1.45;1.35;;;;;;;;;;6222131;22;20012;-73
2022/03/29 02:15:31;;;;;;;1.50;1.48;;;;;;;;;;6274948;22;20020;-74
2022/03/29 02:17:57;;;;;;;2.60;1.60;;;;;;;;;;6273774;22;20031;-75
2022/03/29 02:20:23;;;;;;;1.50;1.40;;;;;;;;;;6248380;22;20016;-74
2022/03/29 02:22:49;;;;;;;1.25;1.25;;;;;;;;;;6249841;22;20069;-73
2022/03/29 02:25:15;;;;;;;1.55;1.45;;;;;;;;;;6285020;22;20016;-75
2022/03/29 02:27:43;;;;;;;1.55;1.45;;;;;;;;;;6231269;22;20039;-73
2022/03/29 02:30:10;;;;;;;1.30;1.20;;;;;;;;;;6281568;22;20016;-75
2022/03/29 02:32:36;;;;;;;1.50;1.40;;;;;;;;;;6258202;22;20034;-74
2022/03/29 02:35:02;;;;;;;2.30;1.90;;;;;;;;;;6281935;22;20418;-74
2022/03/29 02:37:30;;;;;;;1.30;1.20;;;;;;;;;;6247548;22;20016;-71
2022/03/29 02:39:56;;;;;;;0.98;0.98;;;;;;;;;;6274357;22;20329;-78
2022/03/29 02:42:22;;;;;;;1.40;1.40;;;;;;;;;;6274614;22;20012;-78
2022/03/29 02:44:48;;;;;;;2.72;1.50;;;;;;;;;;6274564;22;20016;-79
2022/03/29 02:47:14;;;;;;;1.40;1.33;;;;;;;;;;6246546;22;20015;-77
2022/03/29 02:49:40;;;;;;;2.47;1.52;;;;;;;;;;6247219;22;20083;-77
2022/03/29 02:52:06;;;;;;;1.33;1.33;;;;;;;;;;6273548;22;20007;-78
2022/03/29 02:54:31;;;;;;;1.52;1.42;;;;;;;;;;6274161;22;20026;-78
2022/03/29 02:56:57;;;;;;;1.40;1.30;;;;;;;;;;6273775;22;20022;-77
2022/03/29 02:59:23;;;;;;;1.95;1.30;;;;;;;;;;6271184;22;20030;-74
2022/03/29 03:01:49;;;;;;;1.27;1.20;;;;;;;;;;6246552;22;20442;-73
2022/03/29 03:04:15;;;;;;;2.40;1.58;;;;;;;;;;6273271;22;20007;-73
2022/03/29 03:06:41;;;;;;;1.40;1.30;;;;;;;;;;6273277;22;20019;-73
2022/03/29 03:09:07;;;;;;;2.72;1.30;;;;;;;;;;6273205;22;20007;-73
2022/03/29 03:11:33;;;;;;;1.63;1.45;;;;;;;;;;6271633;22;20018;-74
2022/03/29 03:13:59;;;;;;;1.60;1.50;;;;;;;;;;6273307;22;20083;-74
2022/03/29 03:16:26;;;;;;;1.63;1.50;;;;;;;;;;6245856;22;20024;-75
2022/03/29 03:18:51;;;;;;;1.60;1.42;;;;;;;;;;6273733;22;20082;-74
2022/03/29 03:21:17;;;;;;;1.25;1.20;;;;;;;;;;6245600;22;20089;-73
2022/03/29 03:23:43;;;;;;;1.40;1.30;;;;;;;;;;6271805;22;20414;-77
2022/03/29 03:26:09;;;;;;;1.45;1.35;;;;;;;;;;6271456;22;20486;-76
2022/03/29 03:28:35;;;;;;;5.13;1.60;;;;;;;;;;6272367;22;20450;-75
2022/03/29 03:31:00;;;;;;;3.42;1.83;;;;;;;;;;6272787;22;20015;-74
2022/03/29 03:33:26;;;;;;;2.10;1.90;;;;;;;;;;6271480;22;20068;-74
2022/03/29 03:35:52;;;;;;;1.48;1.38;;;;;;;;;;6246487;22;20043;-75
2022/03/29 03:38:18;;;;;;;2.38;1.80;;;;;;;;;;6271318;22;20007;-70
2022/03/29 03:40:44;;;;;;;2.10;1.90;;;;;;;;;;6272421;22;20447;-71
2022/03/29 03:43:10;;;;;;;1.55;1.45;;;;;;;;;;6272406;22;20047;-72
2022/03/29 03:45:36;;;;;;;1.80;1.70;;;;;;;;;;6245692;22;20019;-71
2022/03/29 03:48:05;;;;;;;1.60;1.50;;;;;;;;;;6273465;22;20026;-71
2022/03/29 03:50:31;;;;;;;4.22;1.58;;;;;;;;;;6245230;22;20018;-69
2022/03/29 03:52:57;;;;;;;1.30;1.30;;;;;;;;;;6272891;22;20094;-69
2022/03/29 03:55:22;;;;;;;6.65;1.80;;;;;;;;;;6272647;22;20023;-69
2022/03/29 03:57:48;;;;;;;1.80;1.70;;;;;;;;;;6272387;22;20051;-69
2022/03/29 04:00:15;;;;;;;4.60;1.55;;;;;;;;;;6270494;22;20425;-69
2022/03/29 04:02:40;;;;;;;1.30;1.30;;;;;;;;;;6245770;22;20073;-70
2022/03/29 04:05:14;;;;;;;1.40;1.30;;;;;;;;;;6272670;22;20011;-71
2022/03/29 04:07:40;;;;;;;2.78;1.80;;;;;;;;;;6272521;22;20347;-70
2022/03/29 04:10:06;;;;;;;1.40;1.30;;;;;;;;;;6272929;22;20015;-71
2022/03/29 04:12:32;;;;;;;1.60;1.50;;;;;;;;;;6245104;22;20016;-70
2022/03/29 04:14:58;;;;;;;1.40;1.40;;;;;;;;;;6271060;22;20077;-71
2022/03/29 04:17:24;;;;;;;1.58;1.48;;;;;;;;;;6245583;22;20014;-78
2022/03/29 04:19:49;;;;;;;1.80;1.70;;;;;;;;;;6246289;22;20012;-76
2022/03/29 04:22:18;;;;;;;1.85;1.75;;;;;;;;;;6271493;22;20038;-75
2022/03/29 04:24:44;;;;;;;1.60;1.52;;;;;;;;;;6244790;22;20022;-76
2022/03/29 04:27:10;;;;;;;1.40;1.38;;;;;;;;;;6271341;22;20054;-76
2022/03/29 04:29:36;;;;;;;1.67;1.58;;;;;;;;;;6271106;22;20020;-73
2022/03/29 04:32:02;;;;;;;4.70;2.00;;;;;;;;;;6243673;22;20021;-73
2022/03/29 04:34:28;;;;;;;2.70;2.05;;;;;;;;;;6271090;22;20558;-74
2022/03/29 04:36:55;;;;;;;2.10;1.95;;;;;;;;;;6274505;22;20039;-75
2022/03/29 04:39:23;;;;;;;1.92;1.83;;;;;;;;;;6248286;22;20015;-74
2022/03/29 04:41:49;;;;;;;2.08;1.98;;;;;;;;;;6273026;22;20359;-73
2022/03/29 04:44:15;;;;;;;2.50;1.67;;;;;;;;;;6247733;22;20153;-72
2022/03/29 04:46:41;;;;;;;1.98;1.88;;;;;;;;;;6275010;22;20189;-74
2022/03/29 04:49:07;;;;;;;1.77;1.75;;;;;;;;;;6248338;22;20018;-75
2022/03/29 04:51:34;;;;;;;1.67;1.58;;;;;;;;;;6274950;22;20046;-74
2022/03/29 04:54:02;;;;;;;3.00;2.67;;;;;;;;;;6248366;22;20007;-74
2022/03/29 04:56:30;;;;;;;6.28;2.38;;;;;;;;;;6275646;22;20027;-73
2022/03/29 04:58:57;;;;;;;1.85;1.75;;;;;;;;;;6273923;22;20020;-72
2022/03/29 05:01:26;;;;;;;2.13;2.00;;;;;;;;;;6248002;22;20023;-74
2022/03/29 05:03:52;;;;;;;2.72;2.22;;;;;;;;;;6248525;22;20012;-74
2022/03/29 05:06:18;;;;;;;1.55;1.55;;;;;;;;;;6247728;22;20459;-75
2022/03/29 05:08:44;;;;;;;2.05;1.95;;;;;;;;;;6274975;22;20007;-73
2022/03/29 05:11:10;;;;;;;2.35;2.25;;;;;;;;;;6275500;22;20011;-76
2022/03/29 05:13:36;;;;;;;2.28;2.15;;;;;;;;;;6274987;22;20030;-74
2022/03/29 05:16:02;;;;;;;5.35;2.30;;;;;;;;;;6273179;22;20027;-75
2022/03/29 05:18:37;;;;;;;3.47;2.03;;;;;;;;;;6248712;22;20057;-74
2022/03/29 05:21:03;;;;;;;2.15;1.83;;;;;;;;;;6275505;22;20015;-72
2022/03/29 05:23:29;;;;;;;1.77;1.65;;;;;;;;;;6274102;22;20011;-74
2022/03/29 05:25:55;;;;;;;7.38;2.50;;;;;;;;;;6272595;22;20011;-76
2022/03/29 05:28:21;;;;;;;2.13;2.03;;;;;;;;;;6247427;22;20455;-75
2022/03/29 05:30:47;;;;;;;1.92;1.60;;;;;;;;;;6275039;22;20452;-73
2022/03/29 05:33:15;;;;;;;2.28;1.70;;;;;;;;;;6274476;22;20007;-74
2022/03/29 05:35:41;;;;;;;1.92;1.83;;;;;;;;;;6247694;22;20027;-74
2022/03/29 05:38:07;;;;;;;2.15;2.03;;;;;;;;;;6274356;22;20507;-76
2022/03/29 05:40:33;;;;;;;2.20;2.10;;;;;;;;;;6272272;22;20372;-74
2022/03/29 05:42:59;;;;;;;3.47;1.92;;;;;;;;;;6247465;22;20086;-74
2022/03/29 05:45:25;;;;;;;2.17;1.98;;;;;;;;;;6273915;22;20018;-74
2022/03/29 05:50:39;;;;;;;1.92;1.83;;;;;;;;;;6274185;22;20022;-74
2022/03/29 05:53:05;;;;;;;1.75;1.67;;;;;;;;;;6272562;22;20012;-74
2022/03/29 05:55:31;;;;;;;3.15;2.33;;;;;;;;;;6272532;22;20046;-74
2022/03/29 05:57:57;;;;;;;1.80;1.70;;;;;;;;;;6246769;22;20135;-75
2022/03/29 06:00:23;;;;;;;2.30;2.20;;;;;;;;;;6221775;22;20440;-74
2022/03/29 06:02:50;;;;;;;2.97;2.40;;;;;;;;;;6272370;22;20015;-74
2022/03/29 06:05:16;;;;;;;1.67;1.67;;;;;;;;;;6272309;22;20016;-73
2022/03/29 06:07:42;;;;;;;3.00;2.45;;;;;;;;;;6273709;22;20054;-74
2022/03/29 06:10:08;;;;;;;2.22;2.03;;;;;;;;;;6274100;22;20358;-74
2022/03/29 06:12:34;;;;;;;2.85;1.98;;;;;;;;;;6246635;22;20112;-74
2022/03/29 06:15:03;;;;;;;2.53;2.33;;;;;;;;;;6272695;22;20333;-74
2022/03/29 06:17:29;;;;;;;1.88;1.60;;;;;;;;;;6273188;22;20018;-75
2022/03/29 06:19:55;;;;;;;2.60;1.83;;;;;;;;;;6273986;22;20434;-75
2022/03/29 06:22:22;;;;;;;2.05;1.90;;;;;;;;;;6273341;22;20053;-75
2022/03/29 06:24:48;;;;;;;1.98;1.58;;;;;;;;;;6273810;22;20030;-74
2022/03/29 06:27:14;;;;;;;1.90;1.80;;;;;;;;;;6272380;22;20011;-74
2022/03/29 06:29:40;;;;;;;2.17;1.67;;;;;;;;;;6272098;22;20141;-69
2022/03/29 06:32:06;;;;;;;6.78;1.92;;;;;;;;;;6271754;22;20011;-69
2022/03/29 06:34:32;;;;;;;1.50;1.40;;;;;;;;;;6273591;22;20530;-70
2022/03/29 06:36:58;;;;;;;2.20;2.10;;;;;;;;;;6273725;22;20015;-69
2022/03/29 06:39:24;;;;;;;2.90;2.50;;;;;;;;;;6267695;22;20388;-69
2022/03/29 06:41:50;;;;;;;2.20;2.00;;;;;;;;;;6269788;22;20042;-69
2022/03/29 06:44:17;;;;;;;1.40;1.40;;;;;;;;;;6271873;22;20018;-69
2022/03/29 06:46:43;;;;;;;2.20;2.10;;;;;;;;;;6270391;22;20011;-69
2022/03/29 06:49:09;;;;;;;1.20;1.20;;;;;;;;;;6270870;22;20015;-69
2022/03/29 06:51:35;;;;;;;2.08;1.90;;;;;;;;;;6271868;22;20105;-68
2022/03/29 06:54:02;;;;;;;2.15;2.05;;;;;;;;;;6270133;22;20194;-69
2022/03/29 06:56:28;;;;;;;1.67;1.60;;;;;;;;;;6272170;22;20471;-69
2022/03/29 06:58:54;;;;;;;2.00;1.90;;;;;;;;;;6270875;22;20424;-70
2022/03/29 07:01:21;;;;;;;1.80;1.70;;;;;;;;;;6268469;22;20029;-69
2022/03/29 07:03:47;;;;;;;8.05;2.03;;;;;;;;;;6243425;22;20008;-70
2022/03/29 07:06:13;;;;;;;2.38;2.28;;;;;;;;;;6268827;22;20368;-69
2022/03/29 07:11:16;;;;;;;2.25;2.15;;;;;;;;;;6268440;22;20011;-69
2022/03/29 07:11:26;;;;;;;1.88;1.77;;;;;;;;;;6270482;22;20012;-70
2022/03/29 07:13:51;;;;;;;1.83;1.73;;;;;;;;;;6270356;22;20014;-69
2022/03/29 07:16:17;;;;;;;2.65;2.45;;;;;;;;;;6268597;22;20023;-70
2022/03/29 07:18:43;;;;;;;3.45;2.25;;;;;;;;;;6243423;22;20458;-69
2022/03/29 07:21:12;;;;;;;1.90;1.80;;;;;;;;;;6271349;22;20091;-69
2022/03/29 07:23:38;;;;;;;2.33;2.13;;;;;;;;;;6269732;22;20038;-69
2022/03/29 07:26:04;;;;;;;1.85;1.77;;;;;;;;;;6270290;22;20012;-69
2022/03/29 07:28:31;;;;;;;1.65;1.60;;;;;;;;;;6242753;22;20448;-70
2022/03/29 07:30:57;;;;;;;1.60;1.58;;;;;;;;;;6270619;22;20015;-69
2022/03/29 07:33:23;;;;;;;1.23;1.23;;;;;;;;;;6269908;22;20008;-69
2022/03/29 07:35:49;;;;;;;1.40;1.40;;;;;;;;;;6268749;22;20098;-69
2022/03/29 07:38:15;;;;;;;3.20;1.77;;;;;;;;;;6268238;22;20486;-68
2022/03/29 07:40:43;;;;;;;4.05;1.70;;;;;;;;;;6268184;22;20016;-69
2022/03/29 07:43:09;;;;;;;1.48;1.48;;;;;;;;;;6270072;22;20012;-69
2022/03/29 07:45:38;;;;;;;1.85;1.75;;;;;;;;;;6270006;22;20220;-70
2022/03/29 07:48:04;;;;;;;3.35;1.90;;;;;;;;;;6269920;22;20094;-70
2022/03/29 07:50:32;;;;;;;1.63;1.52;;;;;;;;;;6242401;22;20022;-70
2022/03/29 07:52:59;;;;;;;1.60;1.60;;;;;;;;;;6270336;22;20015;-70
2022/03/29 07:55:25;;;;;;;1.40;1.38;;;;;;;;;;6242500;22;20062;-70
2022/03/29 07:57:51;;;;;;;2.20;1.55;;;;;;;;;;6270579;22;20460;-70
2022/03/29 08:00:32;;;;;;;2.10;2.00;;;;;;;;;;6269681;22;20020;-70
2022/03/29 08:03:02;;;;;;;1.10;1.10;;;;;;;;;;6244964;22;20008;-70
2022/03/29 08:05:29;;;;;;;1.80;1.70;;;;;;;;;;6243674;22;20026;-70
2022/03/29 08:07:57;;;;;;;1.65;1.55;;;;;;;;;;6270474;22;20463;-69
2022/03/29 08:10:23;;;;;;;2.00;1.90;;;;;;;;;;6243517;22;20047;-71
2022/03/29 08:12:49;;;;;;;3.28;2.20;;;;;;;;;;6269597;22;20344;-69
2022/03/29 08:15:15;;;;;;;2.10;1.80;;;;;;;;;;6243486;22;20023;-69
2022/03/29 08:17:41;;;;;;;2.08;1.98;;;;;;;;;;6241187;22;20229;-69
2022/03/29 08:20:08;;;;;;;1.42;1.42;;;;;;;;;;6270136;22;20560;-69
2022/03/29 08:22:34;;;;;;;2.03;1.92;;;;;;;;;;6270538;22;20086;-69
2022/03/29 08:25:00;;;;;;;2.08;2.03;;;;;;;;;;6271254;22;20553;-70
2022/03/29 08:27:26;;;;;;;1.40;1.33;;;;;;;;;;6269297;22;20061;-69
2022/03/29 08:29:52;;;;;;;1.83;1.45;;;;;;;;;;6271355;22;20463;-69
2022/03/29 08:32:18;;;;;;;1.67;1.58;;;;;;;;;;6244148;22;20039;-69
2022/03/29 08:34:44;;;;;;;1.95;1.85;;;;;;;;;;6271942;22;20011;-69
2022/03/29 08:37:10;;;;;;;2.00;1.90;;;;;;;;;;6219256;22;20158;-69
2022/03/29 08:39:35;;;;;;;2.13;2.03;;;;;;;;;;6271249;22;20015;-68
2022/03/29 08:42:02;;;;;;;2.03;1.92;;;;;;;;;;6269780;22;20550;-68
2022/03/29 08:44:28;;;;;;;1.45;1.45;;;;;;;;;;6270557;22;20012;-70
2022/03/29 08:46:54;;;;;;;2.35;1.33;;;;;;;;;;6271609;22;20061;-70
2022/03/29 08:49:20;;;;;;;1.67;1.67;;;;;;;;;;6271123;22;20011;-71
2022/03/29 08:51:46;;;;;;;2.15;1.95;;;;;;;;;;6269390;22;20015;-71
2022/03/29 08:54:12;;;;;;;2.58;2.38;;;;;;;;;;6270851;22;20008;-71
2022/03/29 08:56:39;;;;;;;3.45;2.42;;;;;;;;;;6269075;22;20090;-72
2022/03/29 08:59:05;;;;;;;2.83;2.63;;;;;;;;;;6243192;22;20524;-72
2022/03/29 09:01:31;;;;;;;1.85;1.73;;;;;;;;;;6270589;22;20015;-70
2022/03/29 09:04:10;;;;;;;1.65;1.55;;;;;;;;;;6270995;22;20018;-70
2022/03/29 09:06:50;;;;;;;1.50;1.50;;;;;;;;;;6270657;22;20539;-71
2022/03/29 09:09:28;;;;;;;2.15;2.05;;;;;;;;;;6245941;22;20027;-71
2022/03/29 09:11:55;;;;;;;2.85;2.10;;;;;;;;;;6272938;22;20087;-70
2022/03/29 09:14:21;;;;;;;2.50;2.30;;;;;;;;;;6271894;22;20054;-71
2022/03/29 09:16:48;;;;;;;3.00;2.72;;;;;;;;;;6219448;22;20024;-70
2022/03/29 09:19:14;;;;;;;2.58;2.20;;;;;;;;;;6270886;22;20057;-71
2022/03/29 09:21:41;;;;;;;2.80;2.60;;;;;;;;;;6269354;22;20015;-72
2022/03/29 09:24:08;;;;;;;3.22;3.00;;;;;;;;;;6271970;22;20416;-72
2022/03/29 09:26:36;;;;;;;2.33;2.22;;;;;;;;;;6271600;22;20046;-71
2022/03/29 09:29:02;;;;;;;3.30;3.10;;;;;;;;;;6272455;22;20059;-72
2022/03/29 09:31:27;;;;;;;2.15;2.05;;;;;;;;;;6271240;22;20019;-71
2022/03/29 09:34:12;;;;;;;2.47;2.38;;;;;;;;;;6219742;22;20114;-71
2022/03/29 09:36:48;;;;;;;2.70;2.50;;;;;;;;;;6272783;22;20024;-72
2022/03/29 09:39:30;;;;;;;2.10;2.00;;;;;;;;;;6245676;22;20083;-72
2022/03/29 09:41:57;;;;;;;4.63;2.40;;;;;;;;;;6271048;22;20405;-72
2022/03/29 09:44:34;;;;;;;2.53;2.40;;;;;;;;;;6244944;22;20026;-72
2022/03/29 09:47:04;;;;;;;2.53;2.38;;;;;;;;;;6272733;22;20011;-72
2022/03/29 09:49:30;;;;;;;3.35;3.15;;;;;;;;;;6244994;22;20359;-71
2022/03/29 09:52:09;;;;;;;2.20;2.10;;;;;;;;;;6272058;22;20012;-72
2022/03/29 09:54:36;;;;;;;1.80;1.70;;;;;;;;;;6269658;22;20019;-73
2022/03/29 09:57:02;;;;;;;4.10;2.88;;;;;;;;;;6270273;22;20414;-72
2022/03/29 09:59:28;;;;;;;3.70;3.40;;;;;;;;;;6268121;22;20027;-72
2022/03/29 10:01:56;;;;;;;1.80;1.73;;;;;;;;;;6270786;22;20104;-72
2022/03/29 10:04:22;;;;;;;1.58;1.58;;;;;;;;;;6270176;22;20099;-71
2022/03/29 10:06:48;;;;;;;2.20;2.05;;;;;;;;;;6243239;22;20364;-72
2022/03/29 10:09:27;;;;;;;4.30;3.28;;;;;;;;;;6270445;22;20007;-72
2022/03/29 10:12:00;;;;;;;2.45;2.35;;;;;;;;;;6243545;22;20011;-72
2022/03/29 10:14:26;;;;;;;7.25;3.10;;;;;;;;;;6242905;22;20026;-71
2022/03/29 10:16:53;;;;;;;3.97;2.72;;;;;;;;;;6243168;22;20557;-71
2022/03/29 10:19:19;;;;;;;3.40;3.10;;;;;;;;;;6270268;22;20011;-71
2022/03/29 10:21:46;;;;;;;7.20;3.10;;;;;;;;;;6242943;22;20022;-72
2022/03/29 10:24:13;;;;;;;3.30;3.10;;;;;;;;;;6217298;22;20011;-71
2022/03/29 10:26:43;;;;;;;3.33;3.10;;;;;;;;;;6269952;22;20434;-71
2022/03/29 10:29:09;;;;;;;2.80;2.60;;;;;;;;;;6267963;22;20062;-72
2022/03/29 10:31:39;;;;;;;3.17;2.97;;;;;;;;;;6269288;22;20015;-72
2022/03/29 10:34:24;;;;;;;3.40;3.20;;;;;;;;;;6269028;22;20035;-72
2022/03/29 10:37:09;;;;;;;2.30;2.20;;;;;;;;;;6268344;22;20034;-72
2022/03/29 10:39:44;;;;;;;2.22;2.13;;;;;;;;;;6217186;22;20089;-72
2022/03/29 10:42:23;;;;;;;3.00;2.80;;;;;;;;;;6243235;22;20015;-72
2022/03/29 10:45:07;;;;;;;2.55;2.35;;;;;;;;;;6270410;22;20016;-72
2022/03/29 10:47:32;;;;;;;3.20;3.00;;;;;;;;;;6270251;22;20095;-73
2022/03/29 10:49:58;;;;;;;4.03;2.50;;;;;;;;;;6268106;22;20406;-73
2022/03/29 10:52:25;;;;;;;1.98;1.88;;;;;;;;;;6242006;22;20026;-73
2022/03/29 10:54:53;;;;;;;2.17;2.05;;;;;;;;;;6269767;22;20344;-72
2022/03/29 10:57:25;;;;;;;1.80;1.70;;;;;;;;;;6242463;22;20022;-73
2022/03/29 10:59:51;;;;;;;2.95;1.80;;;;;;;;;;6269791;22;20012;-72
2022/03/29 11:02:20;;;;;;;2.40;2.20;;;;;;;;;;6269862;22;20015;-73
2022/03/29 11:05:03;;;;;;;1.65;1.55;;;;;;;;;;6269523;22;20044;-73
2022/03/29 11:07:30;;;;;;;2.33;2.22;;;;;;;;;;6269242;22;20035;-72
2022/03/29 11:10:09;;;;;;;2.28;1.85;;;;;;;;;;6269788;22;20008;-73
2022/03/29 11:12:36;;;;;;;2.67;2.47;;;;;;;;;;6269440;22;20080;-73
2022/03/29 11:15:22;;;;;;;1.65;1.55;;;;;;;;;;6242417;22;20063;-72
2022/03/29 11:17:49;;;;;;;2.60;2.50;;;;;;;;;;6268920;22;20247;-72
2022/03/29 11:20:33;;;;;;;4.80;3.10;;;;;;;;;;6269726;22;20011;-72
2022/03/29 11:23:00;;;;;;;2.70;2.50;;;;;;;;;;6267855;22;20015;-72
2022/03/29 11:25:26;;;;;;;3.42;3.13;;;;;;;;;;6242104;22;20007;-72
2022/03/29 11:27:52;;;;;;;2.92;2.75;;;;;;;;;;6269284;22;20011;-72
2022/03/29 11:30:18;;;;;;;3.17;2.90;;;;;;;;;;6268065;22;20679;-72
2022/03/29 11:32:49;;;;;;;2.17;2.08;;;;;;;;;;6267976;22;20392;-72
2022/03/29 11:35:16;;;;;;;2.88;2.67;;;;;;;;;;6268232;22;20081;-72
2022/03/29 11:37:43;;;;;;;1.77;1.70;;;;;;;;;;6267372;22;20022;-73
2022/03/29 11:40:10;;;;;;;2.65;2.45;;;;;;;;;;6269465;22;20061;-73
2022/03/29 11:42:43;;;;;;;2.22;2.13;;;;;;;;;;6269361;22;20008;-72
2022/03/29 11:45:09;;;;;;;2.92;2.72;;;;;;;;;;6242363;22;20094;-72
2022/03/29 11:47:34;;;;;;;2.90;2.70;;;;;;;;;;6267632;22;20371;-72
2022/03/29 11:50:00;;;;;;;3.17;2.97;;;;;;;;;;6269116;22;20146;-73
2022/03/29 11:52:31;;;;;;;2.30;2.20;;;;;;;;;;6269016;22;20483;-72
2022/03/29 11:54:58;;;;;;;3.45;2.55;;;;;;;;;;6267671;22;20024;-72
2022/03/29 11:57:24;;;;;;;2.65;2.55;;;;;;;;;;6268809;22;20020;-72
2022/03/29 11:59:51;;;;;;;4.65;2.75;;;;;;;;;;6242020;22;20011;-72
2022/03/29 12:02:18;;;;;;;2.13;2.03;;;;;;;;;;6242171;22;20043;-72
2022/03/29 12:04:45;;;;;;;3.33;3.03;;;;;;;;;;6242277;22;20723;-72
2022/03/29 12:07:11;;;;;;;2.58;2.25;;;;;;;;;;6269529;22;20018;-73
2022/03/29 12:09:37;;;;;;;2.97;2.78;;;;;;;;;;6242080;22;20011;-72
2022/03/29 12:12:03;;;;;;;2.60;2.40;;;;;;;;;;6242228;22;20021;-72
2022/03/29 12:14:29;;;;;;;2.80;2.70;;;;;;;;;;6241444;22;20523;-72
2022/03/29 12:16:59;;;;;;;2.88;2.67;;;;;;;;;;6267823;22;20344;-72
2022/03/29 12:19:26;;;;;;;4.28;2.70;;;;;;;;;;6268534;22;20089;-72
2022/03/29 12:21:53;;;;;;;3.05;2.85;;;;;;;;;;6267508;22;20019;-72
2022/03/29 12:24:20;;;;;;;3.92;2.63;;;;;;;;;;6266779;22;20484;-71
2022/03/29 12:26:50;;;;;;;2.17;2.08;;;;;;;;;;6241944;22;20016;-72
2022/03/29 12:29:17;;;;;;;1.90;1.80;;;;;;;;;;6267841;22;20007;-72
2022/03/29 12:31:42;;;;;;;3.25;3.05;;;;;;;;;;6266930;22;20027;-72
2022/03/29 12:34:09;;;;;;;2.97;2.78;;;;;;;;;;6242077;22;20007;-71
2022/03/29 12:36:38;;;;;;;1.52;1.50;;;;;;;;;;6268547;22;20074;-70
2022/03/29 12:39:05;;;;;;;4.03;1.65;;;;;;;;;;6264986;22;20016;-70
2022/03/29 12:41:47;;;;;;;5.93;2.83;;;;;;;;;;6267169;22;20020;-70
2022/03/29 12:44:27;;;;;;;3.08;2.45;;;;;;;;;;6268641;22;20020;-70
2022/03/29 12:46:53;;;;;;;1.98;1.65;;;;;;;;;;6241358;22;20024;-72
2022/03/29 12:49:19;;;;;;;2.08;1.95;;;;;;;;;;6241103;22;20019;-71
2022/03/29 12:51:51;;;;;;;2.97;2.45;;;;;;;;;;6267164;22;20440;-70
2022/03/29 12:54:17;;;;;;;2.08;1.88;;;;;;;;;;6267147;22;20016;-72
2022/03/29 12:56:46;;;;;;;2.00;1.90;;;;;;;;;;6242071;22;20359;-71
2022/03/29 12:59:28;;;;;;;2.15;2.03;;;;;;;;;;6270047;22;20031;-71
2022/03/29 13:02:21;;;;;;;2.60;2.50;;;;;;;;;;6269111;22;20022;-70
2022/03/29 13:04:51;;;;;;;2.55;2.45;;;;;;;;;;6239862;22;20015;-71
2022/03/29 13:07:41;;;;;;;3.63;2.85;;;;;;;;;;6243962;22;20108;-70
2022/03/29 13:10:10;;;;;;;1.60;1.60;;;;;;;;;;6269382;22;20007;-71
2022/03/29 13:12:55;;;;;;;2.60;2.38;;;;;;;;;;6271123;22;20094;-70
2022/03/29 13:15:37;;;;;;;2.13;2.03;;;;;;;;;;6267991;22;20118;-70
2022/03/29 13:18:03;;;;;;;2.10;1.88;;;;;;;;;;6243390;22;20039;-71
2022/03/29 13:20:29;;;;;;;2.40;2.30;;;;;;;;;;6270378;22;20043;-71
2022/03/29 13:22:55;;;;;;;1.90;1.83;;;;;;;;;;6217321;22;20015;-70
2022/03/29 13:25:34;;;;;;;2.00;1.90;;;;;;;;;;6242793;22;20476;-72
2022/03/29 13:28:00;;;;;;;2.10;2.00;;;;;;;;;;6243341;22;20022;-72
2022/03/29 13:30:26;;;;;;;2.65;1.90;;;;;;;;;;6264428;22;20414;-71
2022/03/29 13:32:52;;;;;;;3.17;2.05;;;;;;;;;;6268730;22;20022;-72
2022/03/29 13:35:18;;;;;;;2.90;2.28;;;;;;;;;;6267663;22;20050;-70
2022/03/29 13:37:44;;;;;;;2.33;2.10;;;;;;;;;;6268880;22;20012;-71
2022/03/29 13:40:12;;;;;;;2.20;2.10;;;;;;;;;;6270214;22;20374;-70
2022/03/29 13:42:37;;;;;;;2.25;2.15;;;;;;;;;;6270081;22;20069;-70
2022/03/29 13:45:03;;;;;;;3.25;3.05;;;;;;;;;;6243134;22;20023;-70
2022/03/29 13:47:29;;;;;;;3.30;1.50;;;;;;;;;;6268721;22;20011;-70
2022/03/29 13:49:55;;;;;;;2.30;2.20;;;;;;;;;;6270159;22;20011;-70
2022/03/29 13:52:24;;;;;;;2.78;2.60;;;;;;;;;;6266330;22;20007;-69
2022/03/29 13:54:50;;;;;;;2.03;1.92;;;;;;;;;;6271935;22;20011;-70
2022/03/29 13:57:16;;;;;;;2.40;2.30;;;;;;;;;;6245056;22;20042;-70
2022/03/29 13:59:42;;;;;;;2.10;2.00;;;;;;;;;;6219701;22;20426;-70
2022/03/29 14:02:09;;;;;;;2.22;2.03;;;;;;;;;;6271212;22;20016;-70
2022/03/29 14:04:35;;;;;;;2.30;2.20;;;;;;;;;;6270372;22;20011;-69
2022/03/29 14:07:01;;;;;;;2.35;2.15;;;;;;;;;;6272267;22;20337;-69
2022/03/29 14:09:27;;;;;;;2.60;2.40;;;;;;;;;;6244953;22;20012;-71
2022/03/29 14:11:53;;;;;;;2.50;2.25;;;;;;;;;;6272324;22;20016;-71
2022/03/29 14:14:19;;;;;;;2.58;2.42;;;;;;;;;;6271864;22;20031;-69
2022/03/29 14:16:45;;;;;;;2.38;2.17;;;;;;;;;;6245100;22;20478;-70
2022/03/29 14:19:11;;;;;;;2.25;2.15;;;;;;;;;;6245210;22;20446;-69
2022/03/29 14:21:37;;;;;;;3.30;3.00;;;;;;;;;;6272019;22;20015;-72
2022/03/29 14:24:03;;;;;;;1.70;1.60;;;;;;;;;;6272075;22;20030;-70
2022/03/29 14:26:28;;;;;;;1.83;1.80;;;;;;;;;;6272158;22;20011;-69
2022/03/29 14:28:54;;;;;;;2.60;2.50;;;;;;;;;;6244849;22;20095;-69
2022/03/29 14:31:20;;;;;;;3.00;2.67;;;;;;;;;;6272156;22;20023;-69
2022/03/29 14:33:46;;;;;;;2.92;2.72;;;;;;;;;;6269621;22;20011;-69
2022/03/29 14:36:12;;;;;;;3.03;2.78;;;;;;;;;;6270192;22;20027;-69
2022/03/29 14:38:38;;;;;;;2.92;2.72;;;;;;;;;;6244598;22;20509;-69
2022/03/29 14:41:04;;;;;;;3.85;3.08;;;;;;;;;;6245043;22;20035;-70
2022/03/29 14:43:30;;;;;;;3.17;2.97;;;;;;;;;;6271453;22;20008;-70
2022/03/29 14:46:01;;;;;;;3.28;3.08;;;;;;;;;;6244936;22;20031;-71
2022/03/29 14:48:27;;;;;;;4.00;3.40;;;;;;;;;;6270293;22;20011;-69
2022/03/29 14:50:55;;;;;;;4.53;4.10;;;;;;;;;;6272116;22;20020;-70